Hoboken — WDA9734 — position and weather

sailwx.info

Track history (hours):
 
Tides and Currents Weather Stations Pressure Air Temp Water Temp Dewpoint Dewpoint Depression Visibility Wind Speed Wind Dir Waves Ship Positions

Hoboken

Owner: PORT IMPERIAL FERRY CORP, WEEHAWKEN, NJ. More information available from US FCC via Universal Licensing System and Coast Guard Vessel Documentation Center.

Last reported at 2017-Nov-17 15:47 UTC. Time now 2017-Nov-17 19:51 UTC.
Position N 40°46' W 074°01'.

Length 26 m.

Type: Passenger vessel. MMSI: 366868360.

Date/timePositionNaut miles runAvg speedWind from/ knotsBaromVisibWave heightAir tempDewpointWater temp
2017-Nov-17 15:47N 40°46' W 074°01'415.3
2017-Nov-17 15:31N 40°42' W 074°01'4 8.7
2017-Nov-17 15:00N 40°47' W 074°01'3 6.9
2017-Nov-17 14:31N 40°43' W 074°01'1 2.7
2017-Nov-17 14:00N 40°42' W 074°00'2 4.3
2017-Nov-17 13:31N 40°44' W 074°01'2 4.6
2017-Nov-17 13:00N 40°47' W 074°01'4 7.4
2017-Nov-17 12:31N 40°43' W 074°01'1 2.3
2017-Nov-17 12:00N 40°42' W 074°01'3 5.4
2017-Nov-17 11:30N 40°45' W 074°01'2 3.9
2017-Nov-17 11:00N 40°47' W 074°01'0 0.0
2017-Nov-17 09:29N 40°47' W 074°01'0 0.0
2017-Nov-17 01:28N 40°47' W 074°01'4 9.4
2017-Nov-17 01:00N 40°42' W 074°00'4 8.7
2017-Nov-17 00:30N 40°47' W 074°01'3 6.7
2017-Nov-17 00:01N 40°43' W 074°01'0 0.8
2017-Nov-16 23:30N 40°43' W 074°01'4 7.3
2017-Nov-16 23:00N 40°47' W 074°01'4 8.9
2017-Nov-16 22:31N 40°42' W 074°00'3 5.5
2017-Nov-16 22:01N 40°45' W 074°01'0 0.3
2017-Nov-16 21:30N 40°45' W 074°01'3 5.5
2017-Nov-16 21:00N 40°42' W 074°00'4 8.2
2017-Nov-16 20:30N 40°46' W 074°01'0 0.0
2017-Nov-16 20:00N 40°46' W 074°01'0 0.0
2017-Nov-16 19:30N 40°46' W 074°01'0 0.0
2017-Nov-16 15:45N 40°46' W 074°01'418.7
2017-Nov-16 15:31N 40°42' W 074°01'5 9.4
2017-Nov-16 15:00N 40°47' W 074°01'4 7.1
2017-Nov-16 14:31N 40°43' W 074°01'1 2.3
2017-Nov-16 14:00N 40°42' W 074°00'2 4.8
2017-Nov-16 13:31N 40°45' W 074°01'2 4.1
2017-Nov-16 13:00N 40°47' W 074°01'3 6.6
2017-Nov-16 12:30N 40°43' W 074°01'1 2.8
2017-Nov-16 12:00N 40°42' W 074°00'3 5.6
2017-Nov-16 11:30N 40°45' W 074°01'2 3.1
2017-Nov-16 11:00N 40°47' W 074°01'0 0.0
2017-Nov-16 01:24N 40°47' W 074°01'411.1
2017-Nov-16 01:00N 40°42' W 074°00'4 8.6
2017-Nov-16 00:30N 40°47' W 074°01'4 8.8
2017-Nov-16 00:01N 40°42' W 074°02'1 1.4
2017-Nov-15 23:31N 40°43' W 074°01'4 7.3
2017-Nov-15 23:00N 40°47' W 074°01'4 8.8
2017-Nov-15 22:31N 40°42' W 074°00'3 6.0
2017-Nov-15 22:01N 40°45' W 074°01'0 0.5
2017-Nov-15 21:31N 40°45' W 074°01'3 5.5
2017-Nov-15 21:01N 40°42' W 074°00'4 8.2
2017-Nov-15 20:30N 40°46' W 074°01'0 0.0
2017-Nov-15 15:51N 40°46' W 074°01'411.7
2017-Nov-15 15:31N 40°42' W 074°01'4 8.4
2017-Nov-15 15:00N 40°47' W 074°01'3 5.9
2017-Nov-15 14:31N 40°44' W 074°01'2 3.5
2017-Nov-15 14:00N 40°42' W 074°00'1 2.6
2017-Nov-15 13:30N 40°43' W 074°01'4 7.1
2017-Nov-15 13:01N 40°47' W 074°01'4 7.0
2017-Nov-15 12:31N 40°43' W 074°01'1 2.8
2017-Nov-15 12:01N 40°42' W 074°00'3 6.3
2017-Nov-15 11:31N 40°45' W 074°01'1 2.9
2017-Nov-15 11:01N 40°47' W 074°01'0 0.0
2017-Nov-15 01:29N 40°47' W 074°01'4 9.2
2017-Nov-15 01:00N 40°42' W 074°00'3 6.7
2017-Nov-15 00:30N 40°45' W 074°01'2 4.3
2017-Nov-15 00:01N 40°43' W 074°01'1 1.0
2017-Nov-14 23:31N 40°43' W 074°01'4 7.3
2017-Nov-14 23:00N 40°47' W 074°01'4 8.9
2017-Nov-14 22:31N 40°42' W 074°00'3 5.5
2017-Nov-14 22:00N 40°45' W 074°01'1 2.6
2017-Nov-14 21:31N 40°46' W 074°01'4 8.0
2017-Nov-14 21:00N 40°42' W 074°00'4 0.8
2017-Nov-14 15:45N 40°46' W 074°01'416.3
2017-Nov-14 15:31N 40°42' W 074°01'4 8.1
2017-Nov-14 15:00N 40°47' W 074°01'4 7.9
2017-Nov-14 14:31N 40°43' W 074°01'1 2.0
2017-Nov-14 14:00N 40°42' W 074°00'2 5.0
2017-Nov-14 13:31N 40°45' W 074°01'2 3.9
2017-Nov-14 13:00N 40°47' W 074°01'4 7.4
2017-Nov-14 12:31N 40°43' W 074°01'1 2.4
2017-Nov-14 12:01N 40°42' W 074°01'3 6.8
2017-Nov-14 11:31N 40°45' W 074°01'1 2.5
2017-Nov-14 11:00N 40°47' W 074°01'0 0.0
2017-Nov-14 10:30N 40°47' W 074°01'0 0.0
2017-Nov-14 10:00N 40°47' W 074°01'0 0.0
2017-Nov-14 01:24N 40°47' W 074°01'411.1
2017-Nov-14 01:01N 40°42' W 074°00'4 8.7
2017-Nov-14 00:31N 40°47' W 074°01'3 6.8
2017-Nov-14 00:01N 40°43' W 074°01'0 0.6
2017-Nov-13 23:31N 40°43' W 074°01'4 7.4
2017-Nov-13 23:00N 40°47' W 074°01'4 8.8
2017-Nov-13 22:31N 40°42' W 074°00'3 5.4
2017-Nov-13 22:01N 40°45' W 074°01'  
2017-Nov-11 01:27N 40°47' W 074°01'410.0
2017-Nov-11 01:00N 40°42' W 074°00'3 6.4
2017-Nov-11 00:30N 40°45' W 074°01'3 5.5
2017-Nov-11 00:01N 40°43' W 074°01'0 0.7
2017-Nov-10 23:31N 40°43' W 074°01'4 7.1
2017-Nov-10 23:00N 40°47' W 074°01'4 8.9
2017-Nov-10 22:30N 40°42' W 074°00'2 4.7
2017-Nov-10 22:01N 40°44' W 074°01'1 1.3
2017-Nov-10 21:31N 40°45' W 074°01'3 5.8
2017-Nov-10 21:01N 40°42' W 074°00'4 8.3
2017-Nov-10 20:30N 40°46' W 074°01'0 0.0
2017-Nov-10 15:48N 40°46' W 074°01'415.3
2017-Nov-10 15:30N 40°42' W 074°01'5 9.2
2017-Nov-10 15:00N 40°47' W 074°01'4 7.9
2017-Nov-10 14:31N 40°43' W 074°02'1 2.2
2017-Nov-10 14:00N 40°42' W 074°00'2 4.1
2017-Nov-10 13:30N 40°44' W 074°01'2 4.9
2017-Nov-10 13:00N 40°47' W 074°01'4 9.1
2017-Nov-10 12:31N 40°42' W 074°01'0 0.7
2017-Nov-10 12:01N 40°42' W 074°01'3 5.1
2017-Nov-10 11:31N 40°45' W 074°01'2 4.1
2017-Nov-10 11:00N 40°47' W 074°01'0 0.1
2017-Nov-10 10:30N 40°47' W 074°01'0 0.0
2017-Nov-10 10:00N 40°47' W 074°01'0 0.0
2017-Nov-10 01:33N 40°47' W 074°01'0 0.0
2017-Nov-10 01:30N 40°47' W 074°01'4 8.9
2017-Nov-10 01:00N 40°42' W 074°00'3 6.4
2017-Nov-10 00:31N 40°45' W 074°01'1 2.3
2017-Nov-10 00:01N 40°44' W 074°01'1 2.5
2017-Nov-09 23:31N 40°43' W 074°01'3 6.2
2017-Nov-09 23:01N 40°46' W 074°01'4 7.9
2017-Nov-09 22:31N 40°42' W 074°00'2 4.1
2017-Nov-09 22:00N 40°44' W 074°01'3 5.0
2017-Nov-09 21:30N 40°47' W 074°01'5 9.4
2017-Nov-09 21:01N 40°42' W 074°00'5 1.1
2017-Nov-09 16:56N 40°47' W 074°01'0 0.3
2017-Nov-09 15:58N 40°46' W 074°01'4 9.7
2017-Nov-09 15:31N 40°42' W 074°01'5 9.4
2017-Nov-09 15:00N 40°47' W 074°01'4 7.3
2017-Nov-09 14:31N 40°43' W 074°01'1 2.3
2017-Nov-09 14:00N 40°42' W 074°00'3 5.9
2017-Nov-09 13:30N 40°45' W 074°01'2 3.0
2017-Nov-09 13:00N 40°47' W 074°01'4 8.4
2017-Nov-09 12:31N 40°42' W 074°01'0 0.7
2017-Nov-09 12:01N 40°42' W 074°01'3 5.4
2017-Nov-09 11:31N 40°45' W 074°01'2 3.6
2017-Nov-09 11:00N 40°47' W 074°01'0 0.0
2017-Nov-09 10:30N 40°47' W 074°01'0 0.0
2017-Nov-09 10:00N 40°47' W 074°01'0 0.0
2017-Nov-09 01:24N 40°47' W 074°01'411.2
2017-Nov-09 01:00N 40°42' W 074°00'4 8.6
2017-Nov-09 00:30N 40°47' W 074°01'5 9.5
2017-Nov-09 00:01N 40°42' W 074°01'1 1.9
2017-Nov-08 23:31N 40°43' W 074°01'4 7.4
2017-Nov-08 23:00N 40°47' W 074°01'4 8.7
2017-Nov-08 22:30N 40°42' W 074°00'3 5.6
2017-Nov-08 22:00N 40°45' W 074°01'0 0.3
2017-Nov-08 21:31N 40°45' W 074°01'3 5.8
2017-Nov-08 21:00N 40°42' W 074°00'4 8.1
2017-Nov-08 20:30N 40°46' W 074°01'0 0.0
2017-Nov-08 15:45N 40°46' W 074°01'416.2
2017-Nov-08 15:31N 40°42' W 074°01'4 8.5
2017-Nov-08 15:00N 40°47' W 074°01'4 7.3
2017-Nov-08 14:31N 40°43' W 074°02'1 2.4
2017-Nov-08 14:00N 40°42' W 074°00'3 5.4
2017-Nov-08 13:31N 40°45' W 074°01'2 3.3
2017-Nov-08 13:00N 40°47' W 074°01'4 8.7
2017-Nov-08 12:31N 40°42' W 074°02'1 1.5
2017-Nov-08 12:00N 40°42' W 074°01'3 6.2
2017-Nov-08 11:30N 40°45' W 074°01'2 3.2
2017-Nov-08 11:00N 40°47' W 074°01'1 0.1
2017-Nov-08 01:20N 40°46' W 074°01'410.9
2017-Nov-08 01:01N 40°42' W 074°00'3 6.2
2017-Nov-08 00:30N 40°45' W 074°01'0 0.6
2017-Nov-08 00:01N 40°45' W 074°01'3 6.0
2017-Nov-07 23:31N 40°42' W 074°01'3 6.1
2017-Nov-07 23:00N 40°45' W 074°01'3 6.2
2017-Nov-07 22:31N 40°42' W 074°00'2 4.1
2017-Nov-07 22:00N 40°44' W 074°01'1 1.6
2017-Nov-07 21:31N 40°45' W 074°01'3 5.3
2017-Nov-07 21:00N 40°42' W 074°00'4 8.0
2017-Nov-07 20:30N 40°46' W 074°01'0 0.0
2017-Nov-07 15:53N 40°46' W 074°01'  
Track history (hours):
 
Tides and Currents Weather Stations Pressure Air Temp Water Temp Dewpoint Dewpoint Depression Visibility Wind Speed Wind Dir Waves Ship Positions

Hoboken

Owner: PORT IMPERIAL FERRY CORP, WEEHAWKEN, NJ. More information available from US FCC via Universal Licensing System and Coast Guard Vessel Documentation Center.

Last reported at 2017-Nov-17 15:47 UTC. Time now 2017-Nov-17 19:51 UTC.
Position N 40°46' W 074°01'.

Length 26 m.

Type: Passenger vessel. MMSI: 366868360.

Date/timePositionNaut miles runAvg speedWind from/ knotsBaromVisibWave heightAir tempDewpointWater temp
2017-Nov-17 15:47N 40°46' W 074°01'415.3
2017-Nov-17 15:31N 40°42' W 074°01'4 8.7
2017-Nov-17 15:00N 40°47' W 074°01'3 6.9
2017-Nov-17 14:31N 40°43' W 074°01'1 2.7
2017-Nov-17 14:00N 40°42' W 074°00'2 4.3
2017-Nov-17 13:31N 40°44' W 074°01'2 4.6
2017-Nov-17 13:00N 40°47' W 074°01'4 7.4
2017-Nov-17 12:31N 40°43' W 074°01'1 2.3
2017-Nov-17 12:00N 40°42' W 074°01'3 5.4
2017-Nov-17 11:30N 40°45' W 074°01'2 3.9
2017-Nov-17 11:00N 40°47' W 074°01'0 0.0
2017-Nov-17 09:29N 40°47' W 074°01'0 0.0
2017-Nov-17 01:28N 40°47' W 074°01'4 9.4
2017-Nov-17 01:00N 40°42' W 074°00'4 8.7
2017-Nov-17 00:30N 40°47' W 074°01'3 6.7
2017-Nov-17 00:01N 40°43' W 074°01'0 0.8
2017-Nov-16 23:30N 40°43' W 074°01'4 7.3
2017-Nov-16 23:00N 40°47' W 074°01'4 8.9
2017-Nov-16 22:31N 40°42' W 074°00'3 5.5
2017-Nov-16 22:01N 40°45' W 074°01'0 0.3
2017-Nov-16 21:30N 40°45' W 074°01'3 5.5
2017-Nov-16 21:00N 40°42' W 074°00'4 8.2
2017-Nov-16 20:30N 40°46' W 074°01'0 0.0
2017-Nov-16 20:00N 40°46' W 074°01'0 0.0
2017-Nov-16 19:30N 40°46' W 074°01'0 0.0
2017-Nov-16 15:45N 40°46' W 074°01'418.7
2017-Nov-16 15:31N 40°42' W 074°01'5 9.4
2017-Nov-16 15:00N 40°47' W 074°01'4 7.1
2017-Nov-16 14:31N 40°43' W 074°01'1 2.3
2017-Nov-16 14:00N 40°42' W 074°00'2 4.8
2017-Nov-16 13:31N 40°45' W 074°01'2 4.1
2017-Nov-16 13:00N 40°47' W 074°01'3 6.6
2017-Nov-16 12:30N 40°43' W 074°01'1 2.8
2017-Nov-16 12:00N 40°42' W 074°00'3 5.6
2017-Nov-16 11:30N 40°45' W 074°01'2 3.1
2017-Nov-16 11:00N 40°47' W 074°01'0 0.0
2017-Nov-16 01:24N 40°47' W 074°01'411.1
2017-Nov-16 01:00N 40°42' W 074°00'4 8.6
2017-Nov-16 00:30N 40°47' W 074°01'4 8.8
2017-Nov-16 00:01N 40°42' W 074°02'1 1.4
2017-Nov-15 23:31N 40°43' W 074°01'4 7.3
2017-Nov-15 23:00N 40°47' W 074°01'4 8.8
2017-Nov-15 22:31N 40°42' W 074°00'3 6.0
2017-Nov-15 22:01N 40°45' W 074°01'0 0.5
2017-Nov-15 21:31N 40°45' W 074°01'3 5.5
2017-Nov-15 21:01N 40°42' W 074°00'4 8.2
2017-Nov-15 20:30N 40°46' W 074°01'0 0.0
2017-Nov-15 15:51N 40°46' W 074°01'411.7
2017-Nov-15 15:31N 40°42' W 074°01'4 8.4
2017-Nov-15 15:00N 40°47' W 074°01'3 5.9
2017-Nov-15 14:31N 40°44' W 074°01'2 3.5
2017-Nov-15 14:00N 40°42' W 074°00'1 2.6
2017-Nov-15 13:30N 40°43' W 074°01'4 7.1
2017-Nov-15 13:01N 40°47' W 074°01'4 7.0
2017-Nov-15 12:31N 40°43' W 074°01'1 2.8
2017-Nov-15 12:01N 40°42' W 074°00'3 6.3
2017-Nov-15 11:31N 40°45' W 074°01'1 2.9
2017-Nov-15 11:01N 40°47' W 074°01'0 0.0
2017-Nov-15 01:29N 40°47' W 074°01'4 9.2
2017-Nov-15 01:00N 40°42' W 074°00'3 6.7
2017-Nov-15 00:30N 40°45' W 074°01'2 4.3
2017-Nov-15 00:01N 40°43' W 074°01'1 1.0
2017-Nov-14 23:31N 40°43' W 074°01'4 7.3
2017-Nov-14 23:00N 40°47' W 074°01'4 8.9
2017-Nov-14 22:31N 40°42' W 074°00'3 5.5
2017-Nov-14 22:00N 40°45' W 074°01'1 2.6
2017-Nov-14 21:31N 40°46' W 074°01'4 8.0
2017-Nov-14 21:00N 40°42' W 074°00'4 0.8
2017-Nov-14 15:45N 40°46' W 074°01'416.3
2017-Nov-14 15:31N 40°42' W 074°01'4 8.1
2017-Nov-14 15:00N 40°47' W 074°01'4 7.9
2017-Nov-14 14:31N 40°43' W 074°01'1 2.0
2017-Nov-14 14:00N 40°42' W 074°00'2 5.0
2017-Nov-14 13:31N 40°45' W 074°01'2 3.9
2017-Nov-14 13:00N 40°47' W 074°01'4 7.4
2017-Nov-14 12:31N 40°43' W 074°01'1 2.4
2017-Nov-14 12:01N 40°42' W 074°01'3 6.8
2017-Nov-14 11:31N 40°45' W 074°01'1 2.5
2017-Nov-14 11:00N 40°47' W 074°01'0 0.0
2017-Nov-14 10:30N 40°47' W 074°01'0 0.0
2017-Nov-14 10:00N 40°47' W 074°01'0 0.0
2017-Nov-14 01:24N 40°47' W 074°01'411.1
2017-Nov-14 01:01N 40°42' W 074°00'4 8.7
2017-Nov-14 00:31N 40°47' W 074°01'3 6.8
2017-Nov-14 00:01N 40°43' W 074°01'0 0.6
2017-Nov-13 23:31N 40°43' W 074°01'4 7.4
2017-Nov-13 23:00N 40°47' W 074°01'4 8.8
2017-Nov-13 22:31N 40°42' W 074°00'3 5.4
2017-Nov-13 22:01N 40°45' W 074°01'  
2017-Nov-11 01:27N 40°47' W 074°01'410.0
2017-Nov-11 01:00N 40°42' W 074°00'3 6.4
2017-Nov-11 00:30N 40°45' W 074°01'3 5.5
2017-Nov-11 00:01N 40°43' W 074°01'0 0.7
2017-Nov-10 23:31N 40°43' W 074°01'4 7.1
2017-Nov-10 23:00N 40°47' W 074°01'4 8.9
2017-Nov-10 22:30N 40°42' W 074°00'2 4.7
2017-Nov-10 22:01N 40°44' W 074°01'1 1.3
2017-Nov-10 21:31N 40°45' W 074°01'3 5.8
2017-Nov-10 21:01N 40°42' W 074°00'4 8.3
2017-Nov-10 20:30N 40°46' W 074°01'0 0.0
2017-Nov-10 15:48N 40°46' W 074°01'415.3
2017-Nov-10 15:30N 40°42' W 074°01'5 9.2
2017-Nov-10 15:00N 40°47' W 074°01'4 7.9
2017-Nov-10 14:31N 40°43' W 074°02'1 2.2
2017-Nov-10 14:00N 40°42' W 074°00'2 4.1
2017-Nov-10 13:30N 40°44' W 074°01'2 4.9
2017-Nov-10 13:00N 40°47' W 074°01'4 9.1
2017-Nov-10 12:31N 40°42' W 074°01'0 0.7
2017-Nov-10 12:01N 40°42' W 074°01'3 5.1
2017-Nov-10 11:31N 40°45' W 074°01'2 4.1
2017-Nov-10 11:00N 40°47' W 074°01'0 0.1
2017-Nov-10 10:30N 40°47' W 074°01'0 0.0
2017-Nov-10 10:00N 40°47' W 074°01'0 0.0
2017-Nov-10 01:33N 40°47' W 074°01'0 0.0
2017-Nov-10 01:30N 40°47' W 074°01'4 8.9
2017-Nov-10 01:00N 40°42' W 074°00'3 6.4
2017-Nov-10 00:31N 40°45' W 074°01'1 2.3
2017-Nov-10 00:01N 40°44' W 074°01'1 2.5
2017-Nov-09 23:31N 40°43' W 074°01'3 6.2
2017-Nov-09 23:01N 40°46' W 074°01'4 7.9
2017-Nov-09 22:31N 40°42' W 074°00'2 4.1
2017-Nov-09 22:00N 40°44' W 074°01'3 5.0
2017-Nov-09 21:30N 40°47' W 074°01'5 9.4
2017-Nov-09 21:01N 40°42' W 074°00'5 1.1
2017-Nov-09 16:56N 40°47' W 074°01'0 0.3
2017-Nov-09 15:58N 40°46' W 074°01'4 9.7
2017-Nov-09 15:31N 40°42' W 074°01'5 9.4
2017-Nov-09 15:00N 40°47' W 074°01'4 7.3
2017-Nov-09 14:31N 40°43' W 074°01'1 2.3
2017-Nov-09 14:00N 40°42' W 074°00'3 5.9
2017-Nov-09 13:30N 40°45' W 074°01'2 3.0
2017-Nov-09 13:00N 40°47' W 074°01'4 8.4
2017-Nov-09 12:31N 40°42' W 074°01'0 0.7
2017-Nov-09 12:01N 40°42' W 074°01'3 5.4
2017-Nov-09 11:31N 40°45' W 074°01'2 3.6
2017-Nov-09 11:00N 40°47' W 074°01'0 0.0
2017-Nov-09 10:30N 40°47' W 074°01'0 0.0
2017-Nov-09 10:00N 40°47' W 074°01'0 0.0
2017-Nov-09 01:24N 40°47' W 074°01'411.2
2017-Nov-09 01:00N 40°42' W 074°00'4 8.6
2017-Nov-09 00:30N 40°47' W 074°01'5 9.5
2017-Nov-09 00:01N 40°42' W 074°01'1 1.9
2017-Nov-08 23:31N 40°43' W 074°01'4 7.4
2017-Nov-08 23:00N 40°47' W 074°01'4 8.7
2017-Nov-08 22:30N 40°42' W 074°00'3 5.6
2017-Nov-08 22:00N 40°45' W 074°01'0 0.3
2017-Nov-08 21:31N 40°45' W 074°01'3 5.8
2017-Nov-08 21:00N 40°42' W 074°00'4 8.1
2017-Nov-08 20:30N 40°46' W 074°01'0 0.0
2017-Nov-08 15:45N 40°46' W 074°01'416.2
2017-Nov-08 15:31N 40°42' W 074°01'4 8.5
2017-Nov-08 15:00N 40°47' W 074°01'4 7.3
2017-Nov-08 14:31N 40°43' W 074°02'1 2.4
2017-Nov-08 14:00N 40°42' W 074°00'3 5.4
2017-Nov-08 13:31N 40°45' W 074°01'2 3.3
2017-Nov-08 13:00N 40°47' W 074°01'4 8.7
2017-Nov-08 12:31N 40°42' W 074°02'1 1.5
2017-Nov-08 12:00N 40°42' W 074°01'3 6.2
2017-Nov-08 11:30N 40°45' W 074°01'2 3.2
2017-Nov-08 11:00N 40°47' W 074°01'1 0.1
2017-Nov-08 01:20N 40°46' W 074°01'410.9
2017-Nov-08 01:01N 40°42' W 074°00'3 6.2
2017-Nov-08 00:30N 40°45' W 074°01'0 0.6
2017-Nov-08 00:01N 40°45' W 074°01'3 6.0
2017-Nov-07 23:31N 40°42' W 074°01'3 6.1
2017-Nov-07 23:00N 40°45' W 074°01'3 6.2
2017-Nov-07 22:31N 40°42' W 074°00'2 4.1
2017-Nov-07 22:00N 40°44' W 074°01'1 1.6
2017-Nov-07 21:31N 40°45' W 074°01'3 5.3
2017-Nov-07 21:00N 40°42' W 074°00'4 8.0
2017-Nov-07 20:30N 40°46' W 074°01'0 0.0
2017-Nov-07 15:53N 40°46' W 074°01'  

Dump ship's entire track history